Time;durP1;ratioP1;P1;durP2;ratioP2;P2;SDS_P1;SDS_P2;PMS_P1;PMS_P2;Temp;Humidity;BMP_temperature;BMP_pressure;BME280_temperature;BME280_humidity;BME280_pressure;Samples;Min_cycle;Max_cycle;Signal;HPM_P1;HPM_P2
2022/11/17 00:02:03;;;;;;;16.55;11.55;;;8.00;99.90;;;;;;4877695;29;20045;-75
2022/11/17 00:04:29;;;;;;;15.23;10.82;;;8.10;99.90;;;;;;4904786;29;20425;-76
2022/11/17 00:06:56;;;;;;;16.60;11.13;;;8.00;99.90;;;;;;4895301;29;20048;-76
2022/11/17 00:09:22;;;;;;;12.95;9.95;;;8.00;99.90;;;;;;4891628;29;20065;-76
2022/11/17 00:14:35;;;;;;;15.82;11.20;;;8.10;99.90;;;;;;4878928;29;20412;-76
2022/11/17 00:17:06;;;;;;;13.90;10.63;;;8.10;99.90;;;;;;4894667;29;20070;-76
2022/11/17 00:22:16;;;;;;;14.45;10.63;;;8.10;99.90;;;;;;4894323;29;20079;-76
2022/11/17 00:24:42;;;;;;;13.65;10.55;;;8.10;99.90;;;;;;4894236;29;20414;-76
2022/11/17 00:27:07;;;;;;;15.07;10.27;;;8.10;99.90;;;;;;4894397;29;20079;-76
2022/11/17 00:29:33;;;;;;;14.77;10.13;;;8.10;99.90;;;;;;4894200;29;20485;-75
2022/11/17 00:34:43;;;;;;;13.65;10.45;;;8.00;99.90;;;;;;4883914;29;20523;-76
2022/11/17 00:37:10;;;;;;;15.18;10.40;;;8.10;99.90;;;;;;4894982;29;20049;-76
2022/11/17 00:39:36;;;;;;;13.05;10.07;;;8.10;99.90;;;;;;4897385;29;20170;-76
2022/11/17 00:42:02;;;;;;;11.50;9.68;;;8.10;99.90;;;;;;4885106;29;20048;-76
2022/11/17 00:44:28;;;;;;;13.90;9.60;;;8.10;99.90;;;;;;4895023;29;20072;-76
2022/11/17 00:46:53;;;;;;;13.38;9.77;;;8.10;99.90;;;;;;4898864;29;20041;-77
2022/11/17 00:49:20;;;;;;;12.95;9.82;;;8.10;99.90;;;;;;4896154;29;20675;-76
2022/11/17 00:51:46;;;;;;;13.23;9.77;;;8.10;99.90;;;;;;4886397;29;20048;-76
2022/11/17 00:54:12;;;;;;;10.98;9.40;;;8.10;99.90;;;;;;4903953;29;20125;-76
2022/11/17 00:56:38;;;;;;;14.40;9.73;;;8.10;99.90;;;;;;4891497;29;20159;-77
2022/11/17 00:59:04;;;;;;;11.63;8.75;;;8.10;99.90;;;;;;4865917;29;20165;-76
2022/11/17 01:01:30;;;;;;;9.90;8.55;;;8.10;99.90;;;;;;4898520;29;20104;-75
2022/11/17 01:04:01;;;;;;;13.38;8.68;;;8.10;99.90;;;;;;4902968;29;21220;-76
2022/11/17 01:06:30;;;;;;;11.18;8.65;;;8.10;99.90;;;;;;4911958;29;20048;-76
2022/11/17 01:09:01;;;;;;;12.43;9.10;;;8.10;99.90;;;;;;4894850;29;20049;-76
2022/11/17 01:11:27;;;;;;;11.38;8.80;;;8.10;99.90;;;;;;4881045;29;20075;-76
2022/11/17 01:13:55;;;;;;;9.57;8.50;;;8.10;99.90;;;;;;4905170;29;20051;-76
2022/11/17 01:16:22;;;;;;;12.30;8.75;;;8.10;99.90;;;;;;4895748;29;20380;-76
2022/11/17 01:18:48;;;;;;;;;;;8.10;99.90;;;;;;4907907;29;20055;-76
2022/11/17 01:21:20;;;;;;;10.90;8.20;;;8.00;99.90;;;;;;4899436;29;19930;-77
2022/11/17 01:23:47;;;;;;;12.55;9.40;;;8.10;99.90;;;;;;4881698;29;20048;-76
2022/11/17 01:26:18;;;;;;;10.65;9.18;;;8.00;99.90;;;;;;4900789;29;20559;-76
2022/11/17 01:28:45;;;;;;;10.38;8.35;;;8.00;99.90;;;;;;4902703;29;20045;-77
2022/11/17 01:31:11;;;;;;;;;;;8.00;99.90;;;;;;4880438;29;20051;-76
2022/11/17 01:33:37;;;;;;;10.82;8.60;;;8.00;99.90;;;;;;4895132;29;19923;-77
2022/11/17 01:36:07;;;;;;;10.85;8.43;;;8.00;99.90;;;;;;4901629;29;20497;-75
2022/11/17 01:38:33;;;;;;;12.13;8.73;;;8.00;99.90;;;;;;4908881;29;20036;-75
2022/11/17 01:41:00;;;;;;;12.80;8.57;;;8.00;99.90;;;;;;4913101;29;20667;-76
2022/11/17 01:43:42;;;;;;;9.88;8.63;;;7.90;99.90;;;;;;4888482;29;20049;-75
2022/11/17 01:46:16;;;;;;;9.43;8.43;;;7.90;99.90;;;;;;4890688;29;20136;-76
2022/11/17 01:48:42;;;;;;;12.30;8.88;;;7.90;99.90;;;;;;4895516;29;20056;-76
2022/11/17 01:51:10;;;;;;;12.02;8.32;;;7.90;99.90;;;;;;4871984;29;20131;-76
2022/11/17 01:53:37;;;;;;;12.00;8.55;;;7.90;99.90;;;;;;4896375;29;20447;-76
2022/11/17 01:56:06;;;;;;;9.35;8.35;;;7.90;99.90;;;;;;4915327;29;20044;-76
2022/11/17 01:58:40;;;;;;;11.65;8.93;;;7.90;99.90;;;;;;4909874;29;20056;-76
2022/11/17 02:01:05;;;;;;;14.10;8.57;;;7.80;99.90;;;;;;4906579;29;20129;-76
2022/11/17 02:03:33;;;;;;;10.73;8.60;;;7.80;99.90;;;;;;4872331;29;20496;-76
2022/11/17 02:06:09;;;;;;;10.45;8.88;;;7.80;99.90;;;;;;4882248;29;20126;-76
2022/11/17 02:08:37;;;;;;;11.63;9.52;;;7.80;99.90;;;;;;4895943;29;20067;-76
2022/11/17 02:11:07;;;;;;;11.90;8.80;;;7.80;99.90;;;;;;4893655;29;20088;-76
2022/11/17 02:13:34;;;;;;;9.77;8.25;;;7.80;99.90;;;;;;4889748;29;20378;-75
2022/11/17 02:16:00;;;;;;;10.77;8.60;;;7.80;99.90;;;;;;4902701;29;20059;-76
2022/11/17 02:18:25;;;;;;;13.32;8.85;;;7.80;99.90;;;;;;4895816;29;20415;-76
2022/11/17 02:21:42;;;;;;;12.43;8.88;;;7.80;99.90;;;;;;4898217;29;20409;-76
2022/11/17 02:24:32;;;;;;;12.23;8.88;;;7.80;99.90;;;;;;4855526;29;20140;-76
2022/11/17 02:27:16;;;;;;;11.05;7.82;;;7.80;99.90;;;;;;4895072;29;20484;-76
2022/11/17 02:29:54;;;;;;;10.38;8.70;;;7.80;99.90;;;;;;4895264;29;20445;-76
2022/11/17 02:32:22;;;;;;;12.18;9.25;;;7.80;99.90;;;;;;4904720;29;20536;-76
2022/11/17 02:35:16;;;;;;;12.48;9.35;;;7.80;99.90;;;;;;4909959;29;20050;-76
2022/11/17 02:37:51;;;;;;;11.18;9.02;;;7.80;99.90;;;;;;4894893;29;20044;-76
2022/11/17 02:40:33;;;;;;;12.50;9.75;;;7.80;99.90;;;;;;4890549;29;20140;-76
2022/11/17 02:46:09;;;;;;;11.02;9.43;;;7.80;99.90;;;;;;4830963;29;20149;-76
2022/11/17 02:48:55;;;;;;;13.80;9.55;;;7.70;99.90;;;;;;4895424;29;20088;-76
2022/11/17 02:51:23;;;;;;;12.70;10.40;;;7.70;99.90;;;;;;4892658;29;20772;-76
2022/11/17 02:53:54;;;;;;;14.35;10.18;;;7.70;99.90;;;;;;4881573;29;20373;-76
2022/11/17 02:56:20;;;;;;;11.88;9.85;;;7.60;99.90;;;;;;4905707;29;20052;-75
2022/11/17 02:58:49;;;;;;;14.25;10.88;;;7.60;99.90;;;;;;4875652;29;20409;-76
2022/11/17 03:01:35;;;;;;;13.35;11.05;;;7.60;99.90;;;;;;4903897;29;20091;-76
2022/11/17 03:04:06;;;;;;;13.00;11.35;;;7.60;99.90;;;;;;4887648;29;20052;-76
2022/11/17 03:06:57;;;;;;;12.68;11.30;;;7.60;99.90;;;;;;4879578;29;20123;-76
2022/11/17 03:09:37;;;;;;;15.38;12.80;;;7.60;99.90;;;;;;4893915;29;20032;-76
2022/11/17 03:12:35;;;;;;;13.90;12.32;;;7.60;99.90;;;;;;4899168;29;20037;-75
2022/11/17 03:15:18;;;;;;;16.42;13.73;;;7.50;99.90;;;;;;4900071;29;20176;-76
2022/11/17 03:18:03;;;;;;;16.45;14.15;;;7.50;99.90;;;;;;4871596;29;20111;-77
2022/11/17 03:20:45;;;;;;;18.45;14.27;;;7.50;99.90;;;;;;4897619;29;20489;-77
2022/11/17 03:23:18;;;;;;;16.75;13.65;;;7.50;99.90;;;;;;4898267;29;20048;-76
2022/11/17 03:25:50;;;;;;;16.80;14.18;;;7.50;99.90;;;;;;4895082;29;20449;-76
2022/11/17 03:28:20;;;;;;;15.57;13.35;;;7.40;99.90;;;;;;4893526;29;20067;-75
2022/11/17 03:30:46;;;;;;;17.30;13.88;;;7.40;99.90;;;;;;4887667;29;20104;-75
2022/11/17 03:33:17;;;;;;;13.88;12.23;;;7.40;99.90;;;;;;4892484;29;20555;-75
2022/11/17 03:35:48;;;;;;;14.82;13.15;;;7.40;99.90;;;;;;4894473;29;20052;-76
2022/11/17 03:38:16;;;;;;;13.38;11.98;;;7.40;99.90;;;;;;4894323;29;20382;-75
2022/11/17 03:40:45;;;;;;;11.65;10.45;;;7.30;99.90;;;;;;4896137;29;20551;-75
2022/11/17 03:43:13;;;;;;;12.50;10.65;;;7.30;99.90;;;;;;4894241;29;20084;-75
2022/11/17 03:45:48;;;;;;;11.70;10.02;;;7.30;99.90;;;;;;4898190;29;20044;-76
2022/11/17 03:48:41;;;;;;;10.82;9.30;;;7.30;99.90;;;;;;4914022;29;20492;-75
2022/11/17 03:51:12;;;;;;;12.60;10.70;;;7.30;99.90;;;;;;4872429;29;20059;-75
2022/11/17 03:53:39;;;;;;;10.07;8.70;;;7.30;99.90;;;;;;4881793;29;20045;-76
2022/11/17 03:56:18;;;;;;;11.80;9.98;;;7.20;99.90;;;;;;4894904;29;20063;-75
2022/11/17 03:59:15;;;;;;;12.13;9.82;;;7.20;99.90;;;;;;4867571;29;20518;-75
2022/11/17 04:01:41;;;;;;;10.60;9.50;;;7.20;99.90;;;;;;4860494;29;20148;-75
2022/11/17 04:04:11;;;;;;;11.68;8.98;;;7.20;99.90;;;;;;4878153;29;20155;-75
2022/11/17 04:06:37;;;;;;;11.45;9.65;;;7.20;99.90;;;;;;4895928;29;20067;-76
2022/11/17 04:09:02;;;;;;;11.75;10.30;;;7.20;99.90;;;;;;4894237;29;20036;-76
2022/11/17 04:16:56;;;;;;;10.75;9.65;;;7.10;99.90;;;;;;4893875;29;20084;-78
2022/11/17 04:19:22;;;;;;;10.85;9.27;;;7.00;99.90;;;;;;4878937;29;20107;-78
2022/11/17 04:21:48;;;;;;;9.70;8.77;;;7.00;99.90;;;;;;4895138;29;20048;-76
2022/11/17 04:24:14;;;;;;;11.63;9.10;;;7.00;99.90;;;;;;4879508;29;20048;-77
2022/11/17 04:29:23;;;;;;;10.57;9.02;;;6.90;99.90;;;;;;4894274;29;20040;-76
2022/11/17 04:31:49;;;;;;;10.00;9.00;;;7.00;99.90;;;;;;4876019;29;20407;-76
2022/11/17 04:34:15;;;;;;;9.73;8.80;;;7.00;99.90;;;;;;4896047;29;20776;-77
2022/11/17 04:36:44;;;;;;;8.98;7.93;;;6.90;99.90;;;;;;4894622;29;20734;-76
2022/11/17 04:39:12;;;;;;;10.90;9.80;;;6.90;99.90;;;;;;4896400;29;20496;-77
2022/11/17 04:41:53;;;;;;;9.77;8.77;;;6.90;99.90;;;;;;4893995;29;20045;-76
2022/11/17 04:44:25;;;;;;;10.65;9.55;;;6.90;99.90;;;;;;4889027;29;20044;-77
2022/11/17 04:46:51;;;;;;;11.43;9.50;;;6.80;99.90;;;;;;4902941;29;20044;-77
2022/11/17 04:49:17;;;;;;;;;;;6.80;99.90;;;;;;4900918;29;20544;-76
2022/11/17 04:51:44;;;;;;;11.95;9.52;;;6.90;99.90;;;;;;4878641;29;20014;-77
2022/11/17 04:54:11;;;;;;;;;;;6.80;99.90;;;;;;4883099;29;20044;-76
2022/11/17 04:56:37;;;;;;;11.93;9.63;;;6.80;99.90;;;;;;4912041;29;20041;-79
2022/11/17 04:59:03;;;;;;;11.95;9.88;;;6.80;99.90;;;;;;4901593;29;20381;-79
2022/11/17 05:01:29;;;;;;;;;;;6.70;99.90;;;;;;4878892;29;20048;-78
2022/11/17 05:03:59;;;;;;;10.13;8.98;;;6.60;99.90;;;;;;4889593;29;19938;-76
2022/11/17 05:06:30;;;;;;;10.73;9.45;;;6.70;99.90;;;;;;4895849;29;20051;-78
2022/11/17 05:08:57;;;;;;;10.85;9.60;;;6.70;99.90;;;;;;4877615;29;20041;-78
2022/11/17 05:14:10;;;;;;;10.30;9.20;;;6.70;99.90;;;;;;4879970;29;20059;-79
2022/11/17 05:19:22;;;;;;;9.95;8.57;;;6.70;99.90;;;;;;4890588;29;20056;-79
2022/11/17 05:21:48;;;;;;;10.05;9.00;;;6.70;99.90;;;;;;4895181;29;20041;-79
2022/11/17 05:24:13;;;;;;;10.90;8.32;;;6.40;99.90;;;;;;4900640;29;20515;-77
2022/11/17 05:26:41;;;;;;;10.50;9.20;;;6.40;99.90;;;;;;4860052;29;20167;-78
2022/11/17 05:29:08;;;;;;;10.18;8.82;;;6.60;99.90;;;;;;4866126;29;20044;-78
2022/11/17 05:31:34;;;;;;;9.25;8.13;;;6.40;99.90;;;;;;4881984;29;20040;-78
2022/11/17 05:34:01;;;;;;;10.15;8.63;;;6.40;99.90;;;;;;4882347;29;20124;-78
2022/11/17 05:36:27;;;;;;;10.55;8.20;;;6.50;99.90;;;;;;4881955;29;20064;-78
2022/11/17 05:38:53;;;;;;;8.82;7.93;;;6.40;99.90;;;;;;4866684;29;20066;-79
2022/11/17 05:41:19;;;;;;;;;;;6.30;99.90;;;;;;4882665;29;20132;-79
2022/11/17 05:43:45;;;;;;;8.55;7.65;;;6.30;99.90;;;;;;4893707;29;20011;-78
2022/11/17 05:46:11;;;;;;;8.60;7.70;;;6.40;99.90;;;;;;4865960;29;20789;-78
2022/11/17 05:48:37;;;;;;;;;;;6.50;99.90;;;;;;4897864;29;20084;-78
2022/11/17 05:51:04;;;;;;;9.05;7.53;;;6.40;99.90;;;;;;4897059;29;19919;-78
2022/11/17 05:53:30;;;;;;;8.35;7.55;;;6.40;99.90;;;;;;4879934;29;20045;-78
2022/11/17 05:56:34;;;;;;;8.98;7.32;;;6.50;99.90;;;;;;4889325;29;20135;-78
2022/11/17 05:59:02;;;;;;;8.70;7.45;;;6.30;99.90;;;;;;4888160;29;20052;-78
2022/11/17 06:01:31;;;;;;;8.43;7.32;;;6.30;99.90;;;;;;4899785;29;20037;-78
2022/11/17 06:04:02;;;;;;;8.90;7.88;;;6.30;99.90;;;;;;4886040;29;20055;-78
2022/11/17 06:06:28;;;;;;;8.15;7.35;;;6.20;99.90;;;;;;4872341;29;20070;-78
2022/11/17 06:08:55;;;;;;;7.57;6.80;;;6.50;99.90;;;;;;4905416;29;20035;-79
2022/11/17 06:11:20;;;;;;;8.13;7.00;;;6.50;99.90;;;;;;4891141;29;20087;-78
2022/11/17 06:13:46;;;;;;;7.47;6.78;;;6.20;99.90;;;;;;4919093;29;20080;-78
2022/11/17 06:16:17;;;;;;;7.10;6.32;;;6.50;99.90;;;;;;4905815;29;20036;-80
2022/11/17 06:18:53;;;;;;;7.90;7.10;;;6.40;99.90;;;;;;4899269;29;20437;-78
2022/11/17 06:21:19;;;;;;;7.75;6.95;;;6.40;99.90;;;;;;4881187;29;20076;-78
2022/11/17 06:23:47;;;;;;;8.38;6.93;;;6.20;99.90;;;;;;4896865;29;20088;-79
2022/11/17 06:26:13;;;;;;;7.60;6.60;;;6.20;99.90;;;;;;4897048;29;20056;-79
2022/11/17 06:28:42;;;;;;;7.03;6.32;;;6.40;99.90;;;;;;4896470;29;20056;-77
2022/11/17 06:31:08;;;;;;;8.32;6.80;;;6.30;99.90;;;;;;4896097;29;20549;-76
2022/11/17 06:33:39;;;;;;;7.75;6.53;;;6.20;99.90;;;;;;4895215;29;20047;-78
2022/11/17 06:36:06;;;;;;;7.40;6.30;;;6.20;99.90;;;;;;4895900;29;20040;-70
2022/11/17 06:38:34;;;;;;;7.50;6.70;;;6.30;99.90;;;;;;4879858;29;20052;-69
2022/11/17 06:41:01;;;;;;;6.70;5.95;;;6.30;99.90;;;;;;4879238;29;20060;-70
2022/11/17 06:43:27;;;;;;;7.35;6.50;;;6.30;99.90;;;;;;4897089;29;20044;-70
2022/11/17 06:45:53;;;;;;;6.47;5.80;;;6.40;99.90;;;;;;4864693;29;20116;-70
2022/11/17 06:48:25;;;;;;;6.57;5.95;;;6.30;99.90;;;;;;4880381;29;20116;-71
2022/11/17 06:50:52;;;;;;;6.40;5.72;;;6.30;99.90;;;;;;4865709;29;20508;-70
2022/11/17 06:53:18;;;;;;;6.25;5.63;;;6.40;99.90;;;;;;4895567;29;20040;-70
2022/11/17 06:55:47;;;;;;;6.38;5.65;;;6.20;99.90;;;;;;4864277;29;20107;-70
2022/11/17 06:58:12;;;;;;;6.22;5.63;;;6.10;99.90;;;;;;4879920;29;20159;-70
2022/11/17 07:00:38;;;;;;;6.75;5.60;;;6.30;99.90;;;;;;4911154;29;20123;-69
2022/11/17 07:03:09;;;;;;;6.70;5.28;;;6.10;99.90;;;;;;4895258;29;20051;-70
2022/11/17 07:05:37;;;;;;;7.15;5.10;;;6.30;99.90;;;;;;4895175;29;20051;-70
2022/11/17 07:08:05;;;;;;;6.30;5.70;;;6.10;99.90;;;;;;4895247;29;20048;-70
2022/11/17 07:10:32;;;;;;;6.00;5.40;;;6.20;99.90;;;;;;4879416;29;20476;-70
2022/11/17 07:12:58;;;;;;;6.53;5.60;;;6.10;99.90;;;;;;4879518;29;20049;-70
2022/11/17 07:15:25;;;;;;;5.93;5.32;;;6.10;99.90;;;;;;4895196;29;20139;-69
2022/11/17 07:17:50;;;;;;;7.95;6.00;;;6.10;99.90;;;;;;4894712;29;20128;-69
2022/11/17 07:20:17;;;;;;;6.45;5.45;;;6.30;99.90;;;;;;4894881;29;20135;-69
2022/11/17 07:22:43;;;;;;;6.20;5.60;;;6.10;99.90;;;;;;4895266;29;20037;-69
2022/11/17 07:25:10;;;;;;;8.05;5.70;;;6.30;99.90;;;;;;4895093;29;20044;-70
2022/11/17 07:27:36;;;;;;;6.43;5.70;;;6.20;99.90;;;;;;4893830;29;20053;-70
2022/11/17 07:30:04;;;;;;;5.82;5.22;;;6.20;99.90;;;;;;4877730;29;20104;-70
2022/11/17 07:32:31;;;;;;;6.65;5.75;;;6.30;99.90;;;;;;4894395;29;20199;-70
2022/11/17 07:34:58;;;;;;;6.50;5.68;;;6.30;99.90;;;;;;4894206;29;20056;-68
2022/11/17 07:37:24;;;;;;;6.03;5.38;;;6.40;99.90;;;;;;4879208;29;20044;-70
2022/11/17 07:39:50;;;;;;;6.57;5.70;;;6.20;99.90;;;;;;4878973;29;20048;-69
2022/11/17 07:42:15;;;;;;;6.15;5.50;;;6.10;99.90;;;;;;4894509;29;20048;-70
2022/11/17 07:44:41;;;;;;;6.70;5.40;;;6.10;99.90;;;;;;4894433;29;20198;-69
2022/11/17 07:47:07;;;;;;;5.28;4.75;;;6.40;99.90;;;;;;4894663;29;20124;-68
2022/11/17 07:49:32;;;;;;;6.00;5.18;;;6.20;99.90;;;;;;4893991;29;20061;-69
2022/11/17 07:51:58;;;;;;;6.38;5.35;;;6.30;99.90;;;;;;4893635;29;20087;-69
2022/11/17 07:54:24;;;;;;;5.90;5.07;;;6.20;99.90;;;;;;4894754;29;20048;-70
2022/11/17 07:56:49;;;;;;;6.03;5.10;;;6.30;99.90;;;;;;4879058;29;20139;-70
2022/11/17 07:59:15;;;;;;;5.32;4.82;;;6.40;99.90;;;;;;4894621;29;20399;-69
2022/11/17 08:01:41;;;;;;;5.20;4.30;;;6.20;99.90;;;;;;4894596;29;20564;-69
2022/11/17 08:04:06;;;;;;;5.20;4.70;;;6.40;99.90;;;;;;4878838;29;20056;-69
2022/11/17 08:06:32;;;;;;;5.95;5.13;;;6.30;99.90;;;;;;4894184;29;20611;-69
2022/11/17 08:08:58;;;;;;;6.13;4.80;;;6.40;99.90;;;;;;4894197;29;20075;-69
2022/11/17 08:11:24;;;;;;;5.82;4.68;;;6.20;99.90;;;;;;4894507;29;20044;-69
2022/11/17 08:13:50;;;;;;;5.13;4.47;;;6.20;99.90;;;;;;4878533;29;20488;-69
2022/11/17 08:16:16;;;;;;;5.80;4.78;;;6.40;99.90;;;;;;4878721;29;20044;-69
2022/11/17 08:18:41;;;;;;;5.35;4.80;;;6.40;99.90;;;;;;4894249;29;20469;-69
2022/11/17 08:21:12;;;;;;;5.85;4.57;;;6.20;99.90;;;;;;4863330;29;20048;-69
2022/11/17 08:23:39;;;;;;;5.05;4.50;;;6.20;99.90;;;;;;4894006;29;20067;-69
2022/11/17 08:26:08;;;;;;;5.22;4.72;;;6.30;99.90;;;;;;4893956;29;20049;-69
2022/11/17 08:28:34;;;;;;;5.63;4.78;;;6.20;99.90;;;;;;4878986;29;20159;-69
2022/11/17 08:31:01;;;;;;;4.93;4.43;;;6.20;99.90;;;;;;4878932;29;20063;-69
2022/11/17 08:33:27;;;;;;;5.30;4.50;;;6.20;99.90;;;;;;4894078;29;20105;-70
2022/11/17 08:35:57;;;;;;;5.65;4.70;;;6.40;99.90;;;;;;4894322;29;20124;-69
2022/11/17 08:38:27;;;;;;;5.28;4.40;;;6.30;99.90;;;;;;4894458;29;20651;-69
2022/11/17 08:40:55;;;;;;;6.43;5.47;;;6.40;99.90;;;;;;4894183;29;20044;-70
2022/11/17 08:43:20;;;;;;;6.18;4.82;;;6.40;99.90;;;;;;4894204;29;20139;-69
2022/11/17 08:45:46;;;;;;;5.93;5.32;;;6.30;99.90;;;;;;4862975;29;20526;-69
2022/11/17 08:48:12;;;;;;;6.25;4.80;;;6.30;99.90;;;;;;4894150;29;20060;-69
2022/11/17 08:50:37;;;;;;;6.22;5.13;;;6.40;99.90;;;;;;4878507;29;20053;-69
2022/11/17 08:53:03;;;;;;;6.32;5.43;;;6.30;99.90;;;;;;4862933;29;20140;-70
2022/11/17 08:55:29;;;;;;;7.30;5.00;;;6.30;99.90;;;;;;4878410;29;20059;-69
2022/11/17 08:57:54;;;;;;;8.07;5.80;;;6.50;99.90;;;;;;4894084;29;20124;-69
2022/11/17 09:00:20;;;;;;;6.72;5.93;;;6.30;99.90;;;;;;4894003;29;20449;-69
2022/11/17 09:02:46;;;;;;;6.97;5.68;;;6.50;99.90;;;;;;4894568;29;20040;-70
2022/11/17 09:05:12;;;;;;;7.15;6.03;;;6.40;99.90;;;;;;4866322;29;20045;-69
2022/11/17 09:07:37;;;;;;;6.28;5.50;;;6.40;99.90;;;;;;4897406;29;20211;-69
2022/11/17 09:10:04;;;;;;;6.90;5.93;;;6.50;99.90;;;;;;4897471;29;20485;-69
2022/11/17 09:12:30;;;;;;;6.10;5.50;;;6.50;99.90;;;;;;4897248;29;20045;-69
2022/11/17 09:14:56;;;;;;;6.93;6.20;;;6.50;99.90;;;;;;4866252;29;20041;-69
2022/11/17 09:17:21;;;;;;;6.63;5.82;;;6.50;99.90;;;;;;4881691;29;20084;-69
2022/11/17 09:19:47;;;;;;;7.80;6.20;;;6.50;99.90;;;;;;4896915;29;20104;-69
2022/11/17 09:22:13;;;;;;;8.48;6.35;;;6.40;99.90;;;;;;4912837;29;20116;-69
2022/11/17 09:24:38;;;;;;;6.95;6.25;;;6.40;99.90;;;;;;4865859;29;20052;-69
2022/11/17 09:27:04;;;;;;;6.90;6.20;;;6.30;99.90;;;;;;4881607;29;20100;-69
2022/11/17 09:29:30;;;;;;;6.00;5.38;;;6.40;99.90;;;;;;4897051;29;20123;-69
2022/11/17 09:31:56;;;;;;;7.25;6.30;;;6.30;99.90;;;;;;4865913;29;20044;-70
2022/11/17 09:34:22;;;;;;;6.53;5.47;;;6.30;99.90;;;;;;4885485;29;20087;-69
2022/11/17 09:36:48;;;;;;;6.00;5.40;;;6.40;99.90;;;;;;4896966;29;20099;-69
2022/11/17 09:39:16;;;;;;;6.40;5.65;;;6.30;99.90;;;;;;4881326;29;20048;-69
2022/11/17 09:41:46;;;;;;;8.10;6.03;;;6.50;99.90;;;;;;4865921;29;20082;-68
2022/11/17 09:44:30;;;;;;;6.00;5.40;;;6.30;99.90;;;;;;4881122;29;20555;-69
2022/11/17 09:47:20;;;;;;;6.18;5.57;;;6.30;99.90;;;;;;4896480;29;20044;-69
2022/11/17 09:50:21;;;;;;;6.03;5.35;;;6.30;99.90;;;;;;4881050;29;20062;-69
2022/11/17 09:53:05;;;;;;;5.88;5.28;;;6.50;99.90;;;;;;4896206;29;20064;-69
2022/11/17 09:55:50;;;;;;;6.55;5.72;;;6.40;99.90;;;;;;4896756;29;20045;-69
2022/11/17 09:58:43;;;;;;;7.07;5.40;;;6.30;99.90;;;;;;4896407;29;20051;-69
2022/11/17 10:01:20;;;;;;;5.32;4.82;;;6.30;99.90;;;;;;4896494;29;20073;-70
2022/11/17 10:03:48;;;;;;;6.32;5.30;;;6.40;99.90;;;;;;4896261;29;20116;-69
2022/11/17 10:06:14;;;;;;;6.22;5.53;;;6.30;99.90;;;;;;4880827;29;20389;-68
2022/11/17 10:08:44;;;;;;;5.80;5.20;;;6.30;99.90;;;;;;4896442;29;20047;-69
2022/11/17 10:11:31;;;;;;;5.30;4.80;;;6.40;99.90;;;;;;4865501;29;20285;-69
2022/11/17 10:14:16;;;;;;;7.38;5.10;;;6.40;99.90;;;;;;4896143;29;20444;-72
2022/11/17 10:16:51;;;;;;;7.22;5.15;;;6.30;99.90;;;;;;4880666;29;20064;-69
2022/11/17 10:19:23;;;;;;;6.20;5.10;;;6.40;99.90;;;;;;4880456;29;20053;-68
2022/11/17 10:22:05;;;;;;;5.20;4.70;;;6.50;99.90;;;;;;4896212;29;20056;-70
2022/11/17 10:24:39;;;;;;;6.28;4.97;;;6.30;99.90;;;;;;4896310;29;20071;-69
2022/11/17 10:27:19;;;;;;;7.22;5.20;;;6.30;99.90;;;;;;4895917;29;20059;-69
2022/11/17 10:30:03;;;;;;;6.97;5.65;;;6.40;99.90;;;;;;4896052;29;20068;-70
2022/11/17 10:32:32;;;;;;;6.95;5.55;;;6.50;99.90;;;;;;4880113;29;20192;-69
2022/11/17 10:35:18;;;;;;;7.35;5.45;;;6.40;99.90;;;;;;4895906;29;20048;-70
2022/11/17 10:37:57;;;;;;;5.75;5.15;;;6.40;99.90;;;;;;4895489;29;20552;-70
2022/11/17 10:40:44;;;;;;;5.88;5.20;;;6.40;99.90;;;;;;4895527;29;20049;-70
2022/11/17 10:43:13;;;;;;;5.90;5.30;;;6.60;99.90;;;;;;4895584;29;20344;-70
2022/11/17 10:45:50;;;;;;;5.43;4.93;;;6.40;99.90;;;;;;4895205;29;20324;-70
2022/11/17 10:48:32;;;;;;;;;;;6.40;99.90;;;;;;4895152;29;20087;-70
2022/11/17 10:51:08;;;;;;;5.50;4.97;;;6.40;99.90;;;;;;4895380;29;19924;-69
2022/11/17 10:53:43;;;;;;;5.75;5.07;;;6.60;99.90;;;;;;4895033;29;20477;-70
2022/11/17 10:56:15;;;;;;;5.28;4.50;;;6.50;99.90;;;;;;4895487;29;20408;-69
2022/11/17 10:59:11;;;;;;;5.28;4.78;;;6.40;99.90;;;;;;4895665;29;20453;-70
2022/11/17 11:01:40;;;;;;;5.22;4.57;;;6.40;99.90;;;;;;4895693;29;20049;-69
2022/11/17 11:04:26;;;;;;;5.35;4.60;;;6.50;99.90;;;;;;4895280;29;20131;-70
2022/11/17 11:07:11;;;;;;;5.15;4.53;;;6.50;99.90;;;;;;4896966;29;20397;-70
2022/11/17 11:10:13;;;;;;;4.65;4.15;;;6.40;99.90;;;;;;4894931;29;20408;-69
2022/11/17 11:12:44;;;;;;;5.68;5.00;;;6.40;99.90;;;;;;4894817;29;20048;-69
2022/11/17 11:15:18;;;;;;;4.97;4.47;;;6.50;99.90;;;;;;4879749;29;20440;-70
2022/11/17 11:17:43;;;;;;;5.72;4.78;;;6.40;99.90;;;;;;4895462;29;20130;-70
2022/11/17 11:20:14;;;;;;;6.30;4.70;;;6.40;99.90;;;;;;4895363;29;20472;-70
2022/11/17 11:23:15;;;;;;;5.03;4.53;;;6.50;99.90;;;;;;4894843;29;20111;-69
2022/11/17 11:25:54;;;;;;;5.53;5.00;;;6.50;99.90;;;;;;4878689;29;20091;-70
2022/11/17 11:28:35;;;;;;;4.97;4.47;;;6.40;99.90;;;;;;4896546;29;20429;-78
2022/11/17 11:31:18;;;;;;;5.10;4.60;;;6.40;99.90;;;;;;4895290;29;20045;-78
2022/11/17 11:33:54;;;;;;;5.65;4.90;;;6.40;99.90;;;;;;4895314;29;20521;-78
2022/11/17 11:36:38;;;;;;;5.63;4.90;;;6.60;99.90;;;;;;4895565;29;20075;-77
2022/11/17 11:39:49;;;;;;;5.47;4.97;;;6.40;99.90;;;;;;4895158;29;20052;-78
2022/11/17 11:42:20;;;;;;;6.43;5.55;;;6.60;99.90;;;;;;4895016;29;20052;-77
2022/11/17 11:45:10;;;;;;;7.43;6.13;;;6.40;99.90;;;;;;4894953;29;20055;-78
2022/11/17 11:48:07;;;;;;;6.50;5.72;;;6.60;99.90;;;;;;4895020;29;20055;-78
2022/11/17 11:50:41;;;;;;;6.63;5.90;;;6.60;99.90;;;;;;4894917;29;20475;-79
2022/11/17 11:53:21;;;;;;;8.18;6.22;;;6.60;99.90;;;;;;4878916;29;20147;-78
2022/11/17 11:55:50;;;;;;;7.35;6.60;;;6.60;99.90;;;;;;4894911;29;20082;-78
2022/11/17 11:58:23;;;;;;;7.68;6.60;;;6.40;99.90;;;;;;4895007;29;20123;-79
2022/11/17 12:00:55;;;;;;;8.45;6.30;;;6.70;99.90;;;;;;4894392;29;20065;-78
2022/11/17 12:03:41;;;;;;;7.07;6.38;;;6.60;99.90;;;;;;4894445;29;20045;-77
2022/11/17 12:06:39;;;;;;;6.72;6.03;;;6.60;99.90;;;;;;4879012;29;20518;-78
2022/11/17 12:09:08;;;;;;;6.30;5.70;;;6.60;99.90;;;;;;4894346;29;20089;-78
2022/11/17 12:14:21;;;;;;;8.30;5.70;;;6.70;99.90;;;;;;4894976;29;20068;-78
2022/11/17 12:16:47;;;;;;;6.32;5.68;;;6.60;99.90;;;;;;4879405;29;20052;-78
2022/11/17 12:19:49;;;;;;;6.30;5.70;;;6.60;99.90;;;;;;4863940;29;20067;-78
2022/11/17 12:22:33;;;;;;;6.43;5.50;;;6.50;99.90;;;;;;4895136;29;20051;-76
2022/11/17 12:25:16;;;;;;;6.03;5.43;;;6.60;99.90;;;;;;4894799;29;20044;-76
2022/11/17 12:27:51;;;;;;;5.88;5.13;;;6.60;99.90;;;;;;4894346;29;20127;-77
2022/11/17 12:30:32;;;;;;;5.95;5.13;;;6.80;99.90;;;;;;4894739;29;20049;-77
2022/11/17 12:33:07;;;;;;;5.90;5.30;;;6.60;99.90;;;;;;4895101;29;20049;-77
2022/11/17 12:35:38;;;;;;;6.00;5.40;;;6.60;99.90;;;;;;4894515;29;20044;-78
2022/11/17 12:38:15;;;;;;;6.57;5.45;;;6.70;99.90;;;;;;4866124;29;20055;-78
2022/11/17 12:40:43;;;;;;;5.60;4.63;;;6.80;99.90;;;;;;4898799;29;20048;-78
2022/11/17 12:43:15;;;;;;;6.30;5.60;;;6.80;99.90;;;;;;4898414;29;20048;-78
2022/11/17 12:45:53;;;;;;;6.35;5.55;;;6.80;99.90;;;;;;4898542;29;20052;-78
2022/11/17 12:48:36;;;;;;;7.32;5.80;;;6.60;99.90;;;;;;4898386;29;20107;-77
2022/11/17 12:51:08;;;;;;;6.45;5.72;;;6.60;99.90;;;;;;4882742;29;20104;-77
2022/11/17 12:53:56;;;;;;;8.50;6.00;;;6.80;99.90;;;;;;4867229;29;20060;-77
2022/11/17 12:56:25;;;;;;;;;;;6.60;99.90;;;;;;4898796;29;20064;-77
2022/11/17 12:58:57;;;;;;;7.10;6.25;;;6.80;99.90;;;;;;4882612;29;20483;-76
2022/11/17 13:01:38;;;;;;;7.85;5.85;;;6.90;99.90;;;;;;4898362;29;20052;-77
2022/11/17 13:04:36;;;;;;;6.00;5.25;;;6.70;99.90;;;;;;4913518;29;20053;-77
2022/11/17 13:07:04;;;;;;;6.93;6.10;;;6.60;99.90;;;;;;4897081;29;20530;-76
2022/11/17 13:09:32;;;;;;;8.02;6.07;;;7.00;99.90;;;;;;4867112;29;20388;-77
2022/11/17 13:12:04;;;;;;;6.13;5.45;;;6.80;99.90;;;;;;4894244;29;20088;-77
2022/11/17 13:14:31;;;;;;;7.35;5.60;;;6.50;99.90;;;;;;4879084;29;20124;-77
2022/11/17 13:16:59;;;;;;;6.40;5.78;;;6.60;99.90;;;;;;4879205;29;20580;-76
2022/11/17 13:19:36;;;;;;;5.93;5.00;;;7.20;99.90;;;;;;4879075;29;20060;-78
2022/11/17 13:22:14;;;;;;;5.05;4.55;;;7.00;99.90;;;;;;4848066;29;20128;-77
2022/11/17 13:24:47;;;;;;;6.30;4.80;;;6.60;99.90;;;;;;4879350;29;20064;-78
2022/11/17 13:27:31;;;;;;;4.70;4.13;;;7.20;99.90;;;;;;4878854;29;20096;-78
2022/11/17 13:30:21;;;;;;;5.13;4.47;;;6.60;99.90;;;;;;4880020;29;20053;-77
2022/11/17 13:32:47;;;;;;;4.75;4.30;;;6.60;99.90;;;;;;4878949;29;20120;-76
2022/11/17 13:35:32;;;;;;;;;;;7.30;99.90;;;;;;4879325;29;20458;-77
2022/11/17 13:38:10;;;;;;;4.95;4.13;;;7.30;99.90;;;;;;4878566;29;20414;-78
2022/11/17 13:40:39;;;;;;;4.97;4.47;;;7.30;99.90;;;;;;4847907;29;20084;-78
2022/11/17 13:43:07;;;;;;;4.82;4.43;;;7.30;99.90;;;;;;4878861;29;20049;-77
2022/11/17 13:45:33;;;;;;;6.43;5.38;;;7.20;99.90;;;;;;4848131;29;20162;-77
2022/11/17 13:47:58;;;;;;;6.88;5.35;;;6.90;99.90;;;;;;4878660;29;20227;-78